createdAt,value
2018-09-01T00:00:17.127Z,13.22
2018-09-01T00:02:46.687Z,13.20
2018-09-01T00:05:16.156Z,13.21
2018-09-01T00:07:45.618Z,13.19
2018-09-01T00:10:15.117Z,13.21
2018-09-01T00:14:13.980Z,13.30
2018-09-01T00:16:43.530Z,13.24
2018-09-01T00:19:13.083Z,13.19
2018-09-01T00:21:42.633Z,13.19
2018-09-01T00:24:12.636Z,13.16
2018-09-01T00:26:43.464Z,13.10
2018-09-01T00:29:12.957Z,13.11
2018-09-01T00:31:42.449Z,13.07
2018-09-01T00:34:12.201Z,13.08
2018-09-01T00:36:41.612Z,13.07
2018-09-01T00:39:11.110Z,13.04
2018-09-01T00:41:40.624Z,12.98
2018-09-01T00:44:10.103Z,13.04
2018-09-01T00:46:39.583Z,12.93
2018-09-01T00:49:09.001Z,12.95
2018-09-01T00:51:38.502Z,12.92
2018-09-01T00:54:07.994Z,12.90
2018-09-01T00:56:37.502Z,12.85
2018-09-01T00:59:07.034Z,12.86
2018-09-01T01:01:36.540Z,12.83
2018-09-01T01:04:05.989Z,12.79
2018-09-01T01:06:35.386Z,12.79
2018-09-01T01:09:05.945Z,12.74
2018-09-01T01:11:35.439Z,12.72
2018-09-01T01:14:04.929Z,12.66
2018-09-01T01:16:34.426Z,12.65
2018-09-01T01:19:03.905Z,12.63
2018-09-01T01:21:33.639Z,12.55
2018-09-01T01:24:03.102Z,12.48
2018-09-01T01:26:32.544Z,12.45
2018-09-01T01:29:02.076Z,12.52
2018-09-01T01:31:31.534Z,12.50
2018-09-01T01:34:01.014Z,12.49
2018-09-01T01:36:30.525Z,12.47
2018-09-01T01:38:59.938Z,12.44
2018-09-01T01:41:29.420Z,12.43
2018-09-01T01:43:58.959Z,12.39
2018-09-01T01:46:28.439Z,12.39
2018-09-01T01:48:57.900Z,12.29
2018-09-01T01:51:27.342Z,11.93
2018-09-01T01:53:56.802Z,11.84
2018-09-01T01:56:26.289Z,11.77
2018-09-01T01:58:55.771Z,11.72
2018-09-01T02:01:25.171Z,11.73
2018-09-01T02:03:55.346Z,11.68
2018-09-01T02:06:27.149Z,11.58
2018-09-01T02:08:57.383Z,11.47
2018-09-01T02:11:26.897Z,11.51
2018-09-01T02:13:56.354Z,11.56
2018-09-01T02:16:25.908Z,11.58
2018-09-01T02:18:55.398Z,11.55
2018-09-01T02:21:24.871Z,11.52
2018-09-01T02:23:54.382Z,11.52
2018-09-01T02:26:23.866Z,11.39
2018-09-01T02:28:53.381Z,11.16
2018-09-01T02:31:22.850Z,11.23
2018-09-01T02:33:52.342Z,11.33
2018-09-01T02:36:21.778Z,11.23
2018-09-01T02:38:51.334Z,11.22
2018-09-01T02:41:20.795Z,11.19
2018-09-01T02:43:50.401Z,11.26
2018-09-01T02:46:19.808Z,11.37
2018-09-01T02:48:49.272Z,11.47
2018-09-01T02:51:18.764Z,11.45
2018-09-01T02:53:48.191Z,11.36
2018-09-01T02:56:17.619Z,11.50
2018-09-01T02:58:47.130Z,11.55
2018-09-01T03:01:21.820Z,11.65
2018-09-01T03:03:51.411Z,11.71
2018-09-01T03:06:20.853Z,11.75
2018-09-01T03:08:50.251Z,11.79
2018-09-01T03:11:19.796Z,11.81
2018-09-01T03:13:49.269Z,11.82
2018-09-01T03:16:18.707Z,11.87
2018-09-01T03:18:48.209Z,11.84
2018-09-01T03:21:17.649Z,11.89
2018-09-01T03:23:47.144Z,11.85
2018-09-01T03:26:16.647Z,11.89
2018-09-01T03:28:46.097Z,11.89
2018-09-01T03:31:15.571Z,11.93
2018-09-01T03:33:45.075Z,11.87
2018-09-01T03:36:14.543Z,11.88
2018-09-01T03:38:43.998Z,11.88
2018-09-01T03:41:13.458Z,11.92
2018-09-01T03:43:42.905Z,11.97
2018-09-01T03:46:12.340Z,12.06
2018-09-01T03:48:42.322Z,12.05
2018-09-01T03:51:11.809Z,12.06
2018-09-01T03:53:41.252Z,12.11
2018-09-01T03:56:10.732Z,12.14
2018-09-01T03:58:40.227Z,12.16
2018-09-01T04:01:09.669Z,12.23
2018-09-01T04:03:39.211Z,12.26
2018-09-01T04:06:08.661Z,12.31
2018-09-01T04:08:38.119Z,12.38
2018-09-01T04:11:07.646Z,12.36
2018-09-01T04:13:37.065Z,12.33
2018-09-01T04:16:06.514Z,12.31
2018-09-01T04:18:36.024Z,12.29
2018-09-01T04:21:05.525Z,12.36
2018-09-01T04:23:35.058Z,12.37
2018-09-01T04:26:04.529Z,12.36
2018-09-01T04:28:33.957Z,12.29
2018-09-01T04:31:03.482Z,12.30
2018-09-01T04:33:32.933Z,12.32
2018-09-01T04:36:02.467Z,12.34
2018-09-01T04:38:31.985Z,12.36
2018-09-01T04:41:01.444Z,12.36
2018-09-01T04:43:30.980Z,12.36
2018-09-01T04:46:00.430Z,12.34
2018-09-01T04:48:29.961Z,12.34
2018-09-01T04:50:59.422Z,12.37
2018-09-01T04:53:28.834Z,12.40
2018-09-01T04:55:58.303Z,12.47
2018-09-01T04:58:27.722Z,12.46
2018-09-01T05:00:57.272Z,12.49
2018-09-01T05:03:26.713Z,12.50
2018-09-01T05:05:56.177Z,12.54
2018-09-01T05:08:25.792Z,12.61
2018-09-01T05:10:55.212Z,12.64
2018-09-01T05:13:24.700Z,12.59
2018-09-01T05:15:54.112Z,12.57
2018-09-01T05:18:23.710Z,12.60
2018-09-01T05:20:53.211Z,12.68
2018-09-01T05:23:22.720Z,12.70
2018-09-01T05:25:52.192Z,12.70
2018-09-01T05:28:21.730Z,12.70
2018-09-01T05:30:51.215Z,12.78
2018-09-01T05:33:20.926Z,12.77
2018-09-01T05:35:50.392Z,12.74
2018-09-01T05:38:19.861Z,12.68
2018-09-01T05:40:49.405Z,12.86
2018-09-01T05:43:18.925Z,12.87
2018-09-01T05:45:48.486Z,12.87
2018-09-01T05:48:18.233Z,12.89
2018-09-01T05:50:47.820Z,12.90
2018-09-01T05:53:17.134Z,12.89
2018-09-01T05:55:46.663Z,12.90
2018-09-01T05:58:16.152Z,12.95
2018-09-01T06:00:49.822Z,13.03
2018-09-01T06:03:19.815Z,13.10
2018-09-01T06:05:49.457Z,13.25
2018-09-01T06:08:19.230Z,13.31
2018-09-01T06:10:49.289Z,13.35
2018-09-01T06:13:18.792Z,13.36
2018-09-01T06:15:48.963Z,13.38
2018-09-01T06:18:18.438Z,13.35
2018-09-01T06:20:48.144Z,13.43
2018-09-01T06:23:18.510Z,13.44
2018-09-01T06:25:48.265Z,13.49
2018-09-01T06:28:22.220Z,13.53
2018-09-01T06:30:53.117Z,13.55
2018-09-01T06:33:22.654Z,13.66
2018-09-01T06:35:52.202Z,13.73
2018-09-01T06:38:21.698Z,13.91
2018-09-01T06:40:51.240Z,14.00
2018-09-01T06:43:20.770Z,14.23
2018-09-01T06:45:50.229Z,14.20
2018-09-01T06:48:20.253Z,14.14
2018-09-01T06:50:50.103Z,14.10
2018-09-01T06:53:19.592Z,14.00
2018-09-01T06:55:49.136Z,14.20
2018-09-01T06:58:18.606Z,14.26
2018-09-01T07:00:48.092Z,14.27
2018-09-01T07:03:17.544Z,14.31
2018-09-01T07:05:47.041Z,14.48
2018-09-01T07:08:16.670Z,14.58
2018-09-01T07:10:46.292Z,14.68
2018-09-01T07:13:15.782Z,14.55
2018-09-01T07:15:45.374Z,14.65
2018-09-01T07:18:14.923Z,14.72
2018-09-01T07:20:44.602Z,14.83
2018-09-01T07:23:14.112Z,14.90
2018-09-01T07:25:43.595Z,15.29
2018-09-01T07:28:13.041Z,15.45
2018-09-01T07:30:42.639Z,15.38
2018-09-01T07:33:12.121Z,15.52
2018-09-01T07:35:41.698Z,15.63
2018-09-01T07:38:11.118Z,15.66
2018-09-01T07:40:40.539Z,15.67
2018-09-01T07:43:10.145Z,15.75
2018-09-01T07:45:39.549Z,15.87
2018-09-01T07:48:09.259Z,15.86
2018-09-01T07:50:38.731Z,15.86
2018-09-01T07:53:08.148Z,15.78
2018-09-01T07:55:37.606Z,15.75
2018-09-01T07:58:07.174Z,15.71
2018-09-01T08:00:36.720Z,15.66
2018-09-01T08:03:06.852Z,15.83
2018-09-01T08:05:36.421Z,15.94
2018-09-01T08:08:06.100Z,16.03
2018-09-01T08:10:35.588Z,16.23
2018-09-01T08:13:05.218Z,16.59
2018-09-01T08:15:34.848Z,16.72
2018-09-01T08:18:04.369Z,16.75
2018-09-01T08:20:34.507Z,16.74
2018-09-01T08:23:04.038Z,16.73
2018-09-01T08:25:33.640Z,16.82
2018-09-01T08:28:03.259Z,16.96
2018-09-01T08:30:32.925Z,17.13
2018-09-01T08:33:02.440Z,17.17
2018-09-01T08:35:32.059Z,17.02
2018-09-01T08:38:01.673Z,17.00
2018-09-01T08:40:31.330Z,17.07
2018-09-01T08:43:00.980Z,17.00
2018-09-01T08:45:30.461Z,17.07
2018-09-01T08:48:00.092Z,17.05
2018-09-01T08:50:29.596Z,17.12
2018-09-01T08:52:59.127Z,17.23
2018-09-01T08:55:28.725Z,17.26
2018-09-01T08:57:58.201Z,17.24
2018-09-01T09:00:27.817Z,17.41
2018-09-01T09:02:57.346Z,17.39
2018-09-01T09:05:26.898Z,17.41
2018-09-01T09:07:56.579Z,17.40
2018-09-01T09:10:26.062Z,17.53
2018-09-01T09:12:55.520Z,17.68
2018-09-01T09:15:25.039Z,17.81
2018-09-01T09:17:54.595Z,17.91
2018-09-01T09:20:24.582Z,17.97
2018-09-01T09:22:54.109Z,18.03
2018-09-01T09:25:23.854Z,17.95
2018-09-01T09:27:53.617Z,17.98
2018-09-01T09:30:23.269Z,17.77
2018-09-01T09:32:53.563Z,17.72
2018-09-01T09:35:23.017Z,17.74
2018-09-01T09:37:52.526Z,17.82
2018-09-01T09:40:22.163Z,18.01
2018-09-01T09:42:51.731Z,17.97
2018-09-01T09:45:21.760Z,18.19
2018-09-01T09:47:51.263Z,18.31
2018-09-01T09:50:20.821Z,18.27
2018-09-01T09:52:50.377Z,18.41
2018-09-01T09:55:19.945Z,18.46
2018-09-01T09:57:49.392Z,18.36
2018-09-01T10:00:24.130Z,18.43
2018-09-01T10:02:53.695Z,18.37
2018-09-01T10:05:23.187Z,18.38
2018-09-01T10:07:52.689Z,18.49
2018-09-01T10:10:22.191Z,18.55
2018-09-01T10:12:51.876Z,18.96
2018-09-01T10:15:21.420Z,19.20
2018-09-01T10:17:50.979Z,19.22
2018-09-01T10:20:20.602Z,19.18
2018-09-01T10:22:50.039Z,19.34
2018-09-01T10:25:19.517Z,19.34
2018-09-01T10:27:49.022Z,19.26
2018-09-01T10:30:18.508Z,19.27
2018-09-01T10:32:48.032Z,19.02
2018-09-01T10:35:17.641Z,19.21
2018-09-01T10:37:47.142Z,19.36
2018-09-01T10:40:16.722Z,19.57
2018-09-01T10:42:46.283Z,19.54
2018-09-01T10:45:15.686Z,19.68
2018-09-01T10:47:45.509Z,20.02
2018-09-01T10:50:14.997Z,19.97
2018-09-01T10:52:44.995Z,20.03
2018-09-01T10:55:14.450Z,20.09
2018-09-01T10:57:44.250Z,19.97
2018-09-01T11:00:13.917Z,19.76
2018-09-01T11:02:43.465Z,19.61
2018-09-01T11:05:13.482Z,19.67
2018-09-01T11:07:43.091Z,19.56
2018-09-01T11:10:12.748Z,19.60
2018-09-01T11:12:42.269Z,19.72
2018-09-01T11:15:11.837Z,19.77
2018-09-01T11:17:41.455Z,19.84
2018-09-01T11:20:11.148Z,19.89
2018-09-01T11:22:40.545Z,19.95
2018-09-01T11:25:10.011Z,20.02
2018-09-01T11:27:39.545Z,20.12
2018-09-01T11:30:10.976Z,20.29
2018-09-01T11:32:40.742Z,20.24
2018-09-01T11:35:10.534Z,20.38
2018-09-01T11:37:39.986Z,20.19
2018-09-01T11:40:09.564Z,20.03
2018-09-01T11:42:39.234Z,20.02
2018-09-01T11:45:08.675Z,20.13
2018-09-01T11:47:38.248Z,20.08
2018-09-01T11:50:07.818Z,20.34
2018-09-01T11:52:37.248Z,20.41
2018-09-01T11:55:07.557Z,20.43
2018-09-01T11:57:37.082Z,20.59
2018-09-01T12:00:06.984Z,20.61
2018-09-01T12:02:36.635Z,20.80
2018-09-01T12:05:06.281Z,20.96
2018-09-01T12:07:35.800Z,20.99
2018-09-01T12:10:06.173Z,21.05
2018-09-01T12:12:35.714Z,21.19
2018-09-01T12:15:05.644Z,21.05
2018-09-01T12:17:35.280Z,20.99
2018-09-01T12:20:04.812Z,21.23
2018-09-01T12:22:34.250Z,21.54
2018-09-01T12:25:03.949Z,21.91
2018-09-01T12:27:33.428Z,21.82
2018-09-01T12:30:03.008Z,22.49
2018-09-01T12:32:32.407Z,23.08
2018-09-01T12:35:01.825Z,24.47
2018-09-01T12:37:31.370Z,26.14
2018-09-01T12:40:00.857Z,27.07
2018-09-01T12:42:30.528Z,27.14
2018-09-01T12:45:00.067Z,27.00
2018-09-01T12:47:29.612Z,28.56
2018-09-01T12:49:59.209Z,29.05
2018-09-01T12:52:28.806Z,27.94
2018-09-01T12:54:58.422Z,27.80
2018-09-01T12:57:27.932Z,29.81
2018-09-01T12:59:57.444Z,30.26
2018-09-01T13:02:27.114Z,28.99
2018-09-01T13:04:56.711Z,28.31
2018-09-01T13:07:26.254Z,28.76
2018-09-01T13:09:55.779Z,29.71
2018-09-01T13:12:25.214Z,30.34
2018-09-01T13:14:54.769Z,30.18
2018-09-01T13:17:24.313Z,29.26
2018-09-01T13:19:53.862Z,30.41
2018-09-01T13:22:23.422Z,28.64
2018-09-01T13:24:52.979Z,27.72
2018-09-01T13:27:22.514Z,25.95
2018-09-01T13:29:51.951Z,25.89
2018-09-01T13:32:21.429Z,26.31
2018-09-01T13:34:50.979Z,28.10
2018-09-01T13:37:20.416Z,29.29
2018-09-01T13:39:49.981Z,28.62
2018-09-01T13:42:19.401Z,26.41
2018-09-01T13:44:48.907Z,27.44
2018-09-01T13:47:18.463Z,28.39
2018-09-01T13:49:47.957Z,29.49
2018-09-01T13:52:17.522Z,31.21
2018-09-01T13:54:47.597Z,30.26
2018-09-01T13:57:17.159Z,30.62
2018-09-01T13:59:46.624Z,31.99
2018-09-01T14:02:16.086Z,31.03
2018-09-01T14:04:45.910Z,31.61
2018-09-01T14:07:15.396Z,31.35
2018-09-01T14:09:44.905Z,30.96
2018-09-01T14:12:14.386Z,31.40
2018-09-01T14:14:43.998Z,32.62
2018-09-01T14:17:13.417Z,33.17
2018-09-01T14:19:42.948Z,31.78
2018-09-01T14:22:12.494Z,31.07
2018-09-01T14:24:42.068Z,30.26
2018-09-01T14:27:11.826Z,30.16
2018-09-01T14:29:41.421Z,29.04
2018-09-01T14:32:10.893Z,27.58
2018-09-01T14:34:40.418Z,29.21
2018-09-01T14:37:10.206Z,30.04
2018-09-01T14:39:39.691Z,30.69
2018-09-01T14:42:09.186Z,30.68
2018-09-01T14:44:38.744Z,28.79
2018-09-01T14:47:08.251Z,27.61
2018-09-01T14:49:37.995Z,26.40
2018-09-01T14:52:08.053Z,27.04
2018-09-01T14:54:37.609Z,28.07
2018-09-01T14:57:08.028Z,29.73
2018-09-01T14:59:37.542Z,29.45
2018-09-01T15:02:07.153Z,27.89
2018-09-01T15:04:36.665Z,25.86
2018-09-01T15:07:06.469Z,25.03
2018-09-01T15:09:36.029Z,24.07
2018-09-01T15:12:05.742Z,23.58
2018-09-01T15:14:35.938Z,23.21
2018-09-01T15:17:05.573Z,23.16
2018-09-01T15:19:35.031Z,22.66
2018-09-01T15:22:04.510Z,22.49
2018-09-01T15:24:33.923Z,23.35
2018-09-01T15:27:03.658Z,25.22
2018-09-01T15:29:33.271Z,26.42
2018-09-01T15:32:02.708Z,26.56
2018-09-01T15:34:32.551Z,25.78
2018-09-01T15:37:02.075Z,26.77
2018-09-01T15:39:31.795Z,26.03
2018-09-01T15:42:01.242Z,25.06
2018-09-01T15:44:30.872Z,24.36
2018-09-01T15:47:00.656Z,23.73
2018-09-01T15:49:30.103Z,23.27
2018-09-01T15:51:59.672Z,24.64
2018-09-01T15:54:29.372Z,26.24
2018-09-01T15:56:58.871Z,26.77
2018-09-01T15:59:28.302Z,27.38
2018-09-01T16:01:57.869Z,27.74
2018-09-01T16:04:27.336Z,27.59
2018-09-01T16:06:56.860Z,26.80
2018-09-01T16:09:26.537Z,27.20
2018-09-01T16:11:55.983Z,26.60
2018-09-01T16:14:25.457Z,26.26
2018-09-01T16:16:55.245Z,26.93
2018-09-01T16:19:24.777Z,26.86
2018-09-01T16:21:54.311Z,25.62
2018-09-01T16:24:23.966Z,24.01
2018-09-01T16:26:53.536Z,23.25
2018-09-01T16:29:23.257Z,23.59
2018-09-01T16:31:52.963Z,24.33
2018-09-01T16:34:22.505Z,24.59
2018-09-01T16:36:52.092Z,25.21
2018-09-01T16:39:21.599Z,25.21
2018-09-01T16:41:51.110Z,24.84
2018-09-01T16:44:20.608Z,25.03
2018-09-01T16:46:51.221Z,24.75
2018-09-01T16:49:20.783Z,24.67
2018-09-01T16:51:50.352Z,25.16
2018-09-01T16:54:19.976Z,24.96
2018-09-01T16:56:49.580Z,25.19
2018-09-01T16:59:19.065Z,24.61
2018-09-01T17:01:48.697Z,24.04
2018-09-01T17:04:18.272Z,23.03
2018-09-01T17:06:47.759Z,22.59
2018-09-01T17:09:17.277Z,22.50
2018-09-01T17:11:46.832Z,22.16
2018-09-01T17:14:16.290Z,21.80
2018-09-01T17:16:45.905Z,21.61
2018-09-01T17:19:15.342Z,21.53
2018-09-01T17:21:44.921Z,21.36
2018-09-01T17:24:14.368Z,21.23
2018-09-01T17:26:43.948Z,21.00
2018-09-01T17:29:13.447Z,20.87
2018-09-01T17:31:42.897Z,20.71
2018-09-01T17:34:12.841Z,20.70
2018-09-01T17:36:42.389Z,20.52
2018-09-01T17:39:12.952Z,20.39
2018-09-01T17:41:43.126Z,20.32
2018-09-01T17:44:12.746Z,20.14
2018-09-01T17:46:42.346Z,20.04
2018-09-01T17:49:11.910Z,19.95
2018-09-01T17:51:41.335Z,19.86
2018-09-01T17:54:10.906Z,19.82
2018-09-01T17:56:40.509Z,19.72
2018-09-01T17:59:10.251Z,19.55
2018-09-01T18:01:39.866Z,19.46
2018-09-01T18:04:09.381Z,19.29
2018-09-01T18:06:38.911Z,19.22
2018-09-01T18:09:08.420Z,19.07
2018-09-01T18:11:38.542Z,19.04
2018-09-01T18:14:08.012Z,18.99
2018-09-01T18:16:37.562Z,18.87
2018-09-01T18:19:07.190Z,18.76
2018-09-01T18:21:36.952Z,18.64
2018-09-01T18:24:06.536Z,18.57
2018-09-01T18:26:36.111Z,18.56
2018-09-01T18:29:05.874Z,18.41
2018-09-01T18:31:35.419Z,18.25
2018-09-01T18:34:05.101Z,18.20
2018-09-01T18:36:34.622Z,18.03
2018-09-01T18:39:06.550Z,17.95
2018-09-01T18:41:36.179Z,17.84
2018-09-01T18:44:05.889Z,17.74
2018-09-01T18:46:35.474Z,17.68
2018-09-01T18:49:06.282Z,17.63
2018-09-01T18:51:36.623Z,17.56
2018-09-01T18:54:06.922Z,17.43
2018-09-01T18:56:37.073Z,17.46
2018-09-01T18:59:07.052Z,17.38
2018-09-01T19:01:36.534Z,17.39
2018-09-01T19:04:06.033Z,17.23
2018-09-01T19:06:35.595Z,17.15
2018-09-01T19:09:06.766Z,17.01
2018-09-01T19:11:36.780Z,16.80
2018-09-01T19:14:06.518Z,16.52
2018-09-01T19:16:35.929Z,16.47
2018-09-01T19:19:05.491Z,16.37
2018-09-01T19:21:34.954Z,16.27
2018-09-01T19:24:04.411Z,16.15
2018-09-01T19:26:33.878Z,16.05
2018-09-01T19:29:03.482Z,15.97
2018-09-01T19:31:33.013Z,15.97
2018-09-01T19:34:02.499Z,15.97
2018-09-01T19:36:31.983Z,15.88
2018-09-01T19:39:01.492Z,15.78
2018-09-01T19:41:30.926Z,15.72
2018-09-01T19:44:00.354Z,15.63
2018-09-01T19:46:29.857Z,15.55
2018-09-01T19:48:59.306Z,15.49
2018-09-01T19:51:28.815Z,15.41
2018-09-01T19:53:58.291Z,15.38
2018-09-01T19:56:27.699Z,15.28
2018-09-01T19:58:57.217Z,15.14
2018-09-01T20:01:26.692Z,15.09
2018-09-01T20:03:56.525Z,15.07
2018-09-01T20:06:26.002Z,14.98
2018-09-01T20:08:55.511Z,14.92
2018-09-01T20:11:24.980Z,14.91
2018-09-01T20:13:54.490Z,14.86
2018-09-01T20:16:23.945Z,14.76
2018-09-01T20:18:53.385Z,14.60
2018-09-01T20:21:22.804Z,14.44
2018-09-01T20:23:52.719Z,14.37
2018-09-01T20:26:23.054Z,14.29
2018-09-01T20:28:52.569Z,14.24
2018-09-01T20:31:22.170Z,14.12
2018-09-01T20:33:51.688Z,14.01
2018-09-01T20:36:22.626Z,13.98
2018-09-01T20:38:52.136Z,13.99
2018-09-01T20:41:22.926Z,13.99
2018-09-01T20:43:52.680Z,13.96
2018-09-01T20:46:22.253Z,13.97
2018-09-01T20:48:52.562Z,13.98
2018-09-01T20:51:22.060Z,13.99
2018-09-01T20:53:51.572Z,13.90
2018-09-01T20:56:21.118Z,13.84
2018-09-01T20:58:50.599Z,13.84
2018-09-01T21:01:20.446Z,13.84
2018-09-01T21:03:50.002Z,13.83
2018-09-01T21:06:19.563Z,13.83
2018-09-01T21:08:49.018Z,13.86
2018-09-01T21:11:18.940Z,13.89
2018-09-01T21:13:48.425Z,14.03
2018-09-01T21:16:17.985Z,14.13
2018-09-01T21:18:47.433Z,14.22
2018-09-01T21:21:16.842Z,14.27
2018-09-01T21:23:46.454Z,14.25
2018-09-01T21:26:15.894Z,14.09
2018-09-01T21:28:45.320Z,14.00
2018-09-01T21:31:15.752Z,13.89
2018-09-01T21:33:45.182Z,13.83
2018-09-01T21:36:14.686Z,13.74
2018-09-01T21:38:44.219Z,13.54
2018-09-01T21:41:13.669Z,13.45
2018-09-01T21:43:44.768Z,13.37
2018-09-01T21:46:16.351Z,13.19
2018-09-01T21:48:46.250Z,13.18
2018-09-01T21:51:19.911Z,13.17
2018-09-01T21:53:49.438Z,13.20
2018-09-01T21:56:20.174Z,13.22
2018-09-01T21:58:49.899Z,13.19
2018-09-01T22:01:24.949Z,13.17
2018-09-01T22:03:54.442Z,13.05
2018-09-01T22:06:23.919Z,12.96
2018-09-01T22:08:53.364Z,12.90
2018-09-01T22:11:29.315Z,12.93
2018-09-01T22:13:58.819Z,12.88
2018-09-01T22:16:28.421Z,12.88
2018-09-01T22:18:57.914Z,12.86
2018-09-01T22:21:27.377Z,12.71
2018-09-01T22:23:57.221Z,12.67
2018-09-01T22:26:28.880Z,12.62
2018-09-01T22:28:58.429Z,12.58
2018-09-01T22:31:28.013Z,12.55
2018-09-01T22:33:57.324Z,12.59
2018-09-01T22:36:28.014Z,12.63
2018-09-01T22:38:57.506Z,12.56
2018-09-01T22:41:27.515Z,12.47
2018-09-01T22:43:57.676Z,12.52
2018-09-01T22:46:27.149Z,12.56
2018-09-01T22:48:57.609Z,12.52
2018-09-01T22:51:27.091Z,12.52
2018-09-01T22:53:56.539Z,12.50
2018-09-01T22:56:26.001Z,12.45
2018-09-01T22:58:56.439Z,12.36
2018-09-01T23:01:26.192Z,12.24
2018-09-01T23:03:58.884Z,12.17
2018-09-01T23:06:28.624Z,12.13
2018-09-01T23:08:59.191Z,12.13
2018-09-01T23:11:29.164Z,12.06
2018-09-01T23:13:58.651Z,12.05
2018-09-01T23:16:31.767Z,12.01
2018-09-01T23:19:01.765Z,12.00
2018-09-01T23:21:32.137Z,12.00
2018-09-01T23:24:01.769Z,11.99
2018-09-01T23:26:31.916Z,12.05
2018-09-01T23:29:01.957Z,12.04
2018-09-01T23:31:31.467Z,12.04
2018-09-01T23:34:01.217Z,12.10
2018-09-01T23:36:30.834Z,12.08
2018-09-01T23:39:00.257Z,12.10
2018-09-01T23:41:29.744Z,12.06
2018-09-01T23:43:59.145Z,12.00
2018-09-01T23:46:29.597Z,11.97
2018-09-01T23:49:00.090Z,11.94
2018-09-01T23:51:29.511Z,11.84
2018-09-01T23:53:58.961Z,11.72
2018-09-01T23:56:28.749Z,11.69
2018-09-01T23:58:58.548Z,11.59
